createdAt,value
2019-02-25T20:51:12.028Z,64.28
2019-02-25T20:53:46.163Z,64.28
2019-02-25T20:56:22.458Z,64.40
2019-02-25T20:58:56.101Z,64.47
2019-02-25T21:01:29.040Z,64.45
2019-02-25T21:04:02.089Z,64.54
2019-02-25T21:06:35.876Z,64.54
2019-02-25T21:09:11.111Z,64.51
2019-02-25T21:11:44.326Z,64.47
2019-02-25T21:14:18.931Z,64.48
2019-02-25T21:16:53.778Z,64.42
2019-02-25T21:19:26.275Z,64.40
2019-02-25T21:21:59.775Z,64.18
2019-02-25T21:24:35.470Z,64.12
2019-02-25T21:27:10.431Z,64.04
2019-02-25T21:29:43.303Z,64.03
2019-02-25T21:32:19.965Z,63.83
2019-02-25T21:34:55.309Z,63.46
2019-02-25T21:37:29.346Z,63.52
2019-02-25T21:40:02.892Z,63.52
2019-02-25T21:42:44.349Z,63.24
2019-02-25T21:45:24.527Z,63.06
2019-02-25T21:47:59.070Z,62.58
2019-02-25T21:50:34.031Z,62.22
2019-02-25T21:53:07.560Z,62.01
2019-02-25T21:55:40.724Z,61.79
2019-02-25T21:58:21.449Z,61.37
2019-02-25T22:00:54.809Z,61.21
2019-02-25T22:03:27.780Z,60.96
2019-02-25T22:06:04.906Z,60.98
2019-02-25T22:08:38.054Z,60.71
2019-02-25T22:11:13.063Z,60.95
2019-02-25T22:13:45.798Z,60.95
2019-02-25T22:16:18.634Z,60.70
2019-02-25T22:18:54.185Z,60.57
2019-02-25T22:21:26.785Z,60.61
2019-02-25T22:24:03.001Z,60.42
2019-02-25T22:26:35.642Z,60.51
2019-02-25T22:29:09.993Z,60.47
2019-02-25T22:31:44.257Z,60.53
2019-02-25T22:34:18.647Z,60.57
2019-02-25T22:36:53.455Z,60.81
2019-02-25T22:39:27.866Z,60.81
2019-02-25T22:42:03.012Z,61.02
2019-02-25T22:44:36.730Z,60.77
2019-02-25T22:47:11.637Z,60.81
2019-02-25T22:49:43.969Z,61.05
2019-02-25T22:52:22.306Z,61.05
2019-02-25T22:54:56.192Z,61.24
2019-02-25T22:57:31.619Z,61.23
2019-02-25T23:00:06.402Z,61.29
2019-02-25T23:02:43.139Z,61.39
2019-02-25T23:05:18.584Z,61.45
2019-02-25T23:07:50.642Z,61.49
2019-02-25T23:10:24.366Z,61.58
2019-02-25T23:12:58.175Z,61.65
2019-02-25T23:15:31.014Z,61.77
2019-02-25T23:18:05.621Z,61.77
2019-02-25T23:20:38.391Z,61.86
2019-02-25T23:23:11.223Z,62.04
2019-02-25T23:25:46.875Z,62.37
2019-02-25T23:28:18.950Z,62.37
2019-02-25T23:30:53.299Z,62.25
2019-02-25T23:33:27.498Z,62.47
2019-02-25T23:36:00.277Z,62.68
2019-02-25T23:38:33.058Z,62.90
2019-02-25T23:41:07.617Z,63.10
2019-02-25T23:43:42.257Z,63.32
2019-02-25T23:46:14.984Z,63.51
2019-02-25T23:48:47.737Z,63.79
2019-02-25T23:51:23.382Z,64.12
2019-02-25T23:53:57.591Z,64.55
2019-02-25T23:56:31.760Z,64.56
2019-02-25T23:59:04.825Z,64.63
